LFJL

Metz-Nancy-Lorraine Airport

Airport
ICAO code
LFJL
IATA Code
ETZ
Summary
ICAO Region
EUR
ICAO Territory
Location

, Lorraine

Serving
Metz
Elevation
870 ft
Coordinates
48° 58' 56" N , 6° 15' 5" E
Metar
Observation
LFJL 091900Z AUTO 02002KT 9999 FEW046 M00/M02 Q1004 TEMPO 0200 FZFG VV///
Station
Metz-Nancy-Lorraine
Date/Time
2022-12-09 19:00:00
Wind direction
20°
Wind speed
02 kts
Lowest cloud amount
few clouds
Temperature
-0°C
Dew point
-2°C
Humidity
86%
QNH
1004 hPa
Weather condition
n/a

Runways

Designator Length Width Surface Rops
4/22 2500 45 ASP Yes/Yes

Airport map

Aerial View

SKYbrary Partners:

Safety knowledge contributed by: